Time;durP1;ratioP1;P1;durP2;ratioP2;P2;SDS_P1;SDS_P2;PMS_P1;PMS_P2;Temp;Humidity;BMP_temperature;BMP_pressure;BME280_temperature;BME280_humidity;BME280_pressure;Samples;Min_cycle;Max_cycle;Signal;HPM_P1;HPM_P2
2021/09/08 00:04:36;;;;;;;6.20;5.47;;;;;;;;;;10337894;28;20494;-82
2021/09/08 00:09:37;;;;;;;17.80;6.23;;;;;;;;;;10338005;28;20466;-82
2021/09/08 00:14:37;;;;;;;10.65;5.88;;;;;;;;;;10338075;28;20546;-83
2021/09/08 00:19:38;;;;;;;10.65;5.80;;;;;;;;;;10337896;28;20463;-83
2021/09/08 00:24:38;;;;;;;19.17;5.70;;;;;;;;;;10337548;28;20030;-81
2021/09/08 00:29:38;;;;;;;11.23;4.27;;;;;;;;;;10336600;28;20474;-83
2021/09/08 00:34:39;;;;;;;5.43;4.47;;;;;;;;;;10337045;28;20049;-83
2021/09/08 00:39:39;;;;;;;12.23;4.73;;;;;;;;;;10336496;28;20451;-83
2021/09/08 00:44:40;;;;;;;18.50;4.80;;;;;;;;;;10337080;28;20039;-82
2021/09/08 00:49:41;;;;;;;6.40;4.32;;;;;;;;;;10336925;28;20433;-83
2021/09/08 00:54:48;;;;;;;5.50;4.07;;;;;;;;;;10335446;28;20104;-83
2021/09/08 00:59:49;;;;;;;8.33;3.90;;;;;;;;;;10336109;28;20030;-83
2021/09/08 01:04:49;;;;;;;11.87;4.57;;;;;;;;;;10335395;28;20027;-82
2021/09/08 01:09:50;;;;;;;10.70;4.33;;;;;;;;;;10335773;28;20457;-83
2021/09/08 01:14:50;;;;;;;7.72;3.90;;;;;;;;;;10335729;28;20068;-82
2021/09/08 01:19:51;;;;;;;6.80;4.13;;;;;;;;;;10335673;28;20045;-81
2021/09/08 01:24:51;;;;;;;20.10;4.43;;;;;;;;;;10334825;28;20075;-82
2021/09/08 01:29:51;;;;;;;16.53;4.30;;;;;;;;;;10334832;28;20548;-82
2021/09/08 01:34:52;;;;;;;11.05;3.92;;;;;;;;;;10365994;28;20034;-82
2021/09/08 01:39:52;;;;;;;5.90;4.10;;;;;;;;;;10354693;28;20462;-82
2021/09/08 01:44:53;;;;;;;4.33;3.80;;;;;;;;;;10339121;28;20467;-81
2021/09/08 01:49:53;;;;;;;7.80;4.10;;;;;;;;;;10347744;28;20433;-81
2021/09/08 01:54:53;;;;;;;8.87;4.07;;;;;;;;;;10334193;28;20129;-82
2021/09/08 01:59:54;;;;;;;4.70;3.90;;;;;;;;;;10333676;28;20026;-82
2021/09/08 02:04:54;;;;;;;7.07;4.00;;;;;;;;;;10332680;28;20034;-82
2021/09/08 02:09:54;;;;;;;5.80;3.77;;;;;;;;;;10333420;28;20113;-83
2021/09/08 02:14:55;;;;;;;7.05;4.05;;;;;;;;;;10333847;28;20097;-83
2021/09/08 02:19:55;;;;;;;5.40;3.47;;;;;;;;;;10333780;28;20113;-83
2021/09/08 02:24:56;;;;;;;5.13;3.50;;;;;;;;;;10307462;28;20030;-81
2021/09/08 02:29:56;;;;;;;10.10;4.03;;;;;;;;;;10332513;28;20030;-82
2021/09/08 02:34:56;;;;;;;4.43;3.57;;;;;;;;;;10333696;28;20463;-82
2021/09/08 02:39:57;;;;;;;6.68;3.90;;;;;;;;;;10345305;28;20036;-82
2021/09/08 02:44:57;;;;;;;12.27;3.33;;;;;;;;;;10346525;28;20485;-82
2021/09/08 02:49:58;;;;;;;6.70;3.77;;;;;;;;;;10335723;28;20452;-83
2021/09/08 02:54:58;;;;;;;8.30;3.53;;;;;;;;;;10332387;28;20070;-83
2021/09/08 02:59:58;;;;;;;6.60;3.40;;;;;;;;;;10332810;28;20034;-83
2021/09/08 03:04:59;;;;;;;5.67;3.70;;;;;;;;;;10332913;28;20173;-82
2021/09/08 03:09:59;;;;;;;5.20;3.47;;;;;;;;;;10332476;28;20035;-82
2021/09/08 03:15:00;;;;;;;4.47;3.33;;;;;;;;;;10331972;28;20489;-83
2021/09/08 03:20:00;;;;;;;5.07;3.50;;;;;;;;;;10338695;28;20386;-81
2021/09/08 03:25:01;;;;;;;4.88;3.42;;;;;;;;;;10341054;28;20037;-81
2021/09/08 03:30:02;;;;;;;5.78;3.03;;;;;;;;;;10339724;28;20031;-83
2021/09/08 03:35:03;;;;;;;5.28;3.75;;;;;;;;;;10339524;28;20030;-82
2021/09/08 03:40:04;;;;;;;4.10;3.47;;;;;;;;;;10352404;28;20026;-82
2021/09/08 03:45:05;;;;;;;3.85;3.10;;;;;;;;;;10339245;28;20502;-83
2021/09/08 03:50:06;;;;;;;5.10;3.53;;;;;;;;;;10339006;28;20097;-83
2021/09/08 03:55:08;;;;;;;6.03;3.22;;;;;;;;;;10338719;28;20541;-83
2021/09/08 04:00:09;;;;;;;3.35;3.03;;;;;;;;;;10338871;28;20034;-83
2021/09/08 04:05:10;;;;;;;5.35;3.38;;;;;;;;;;10338336;28;20118;-84
2021/09/08 04:10:10;;;;;;;4.13;3.40;;;;;;;;;;10338225;28;20114;-82
2021/09/08 04:15:11;;;;;;;4.40;3.00;;;;;;;;;;10338089;28;20034;-82
2021/09/08 04:20:12;;;;;;;6.13;3.30;;;;;;;;;;10337527;28;20093;-82
2021/09/08 04:25:13;;;;;;;5.80;3.90;;;;;;;;;;10337698;28;20030;-82
2021/09/08 04:30:13;;;;;;;3.65;2.83;;;;;;;;;;10336023;28;20031;-83
2021/09/08 04:35:14;;;;;;;3.92;2.97;;;;;;;;;;10338221;28;20038;-82
2021/09/08 04:40:14;;;;;;;3.77;3.17;;;;;;;;;;10350316;28;20059;-82
2021/09/08 04:45:15;;;;;;;6.67;3.90;;;;;;;;;;10338052;28;20129;-81
2021/09/08 04:50:15;;;;;;;4.15;3.33;;;;;;;;;;10336492;28;20900;-83
2021/09/08 04:55:15;;;;;;;5.33;3.60;;;;;;;;;;10335031;28;20031;-83
2021/09/08 05:00:16;;;;;;;5.57;3.17;;;;;;;;;;10334925;28;20863;-82
2021/09/08 05:05:17;;;;;;;5.18;3.15;;;;;;;;;;10336167;28;20390;-80
2021/09/08 05:10:17;;;;;;;3.70;3.03;;;;;;;;;;10329829;28;20027;-94
2021/09/08 05:15:17;;;;;;;7.45;3.30;;;;;;;;;;10332254;28;20041;-95
2021/09/08 05:20:18;;;;;;;5.40;3.17;;;;;;;;;;10343007;28;20122;-94
2021/09/08 05:25:19;;;;;;;3.92;3.22;;;;;;;;;;10348410;28;20034;-96
2021/09/08 05:30:19;;;;;;;3.80;3.47;;;;;;;;;;10343037;28;20030;-96
2021/09/08 05:35:20;;;;;;;4.65;3.15;;;;;;;;;;10342692;28;20050;-96
2021/09/08 05:40:20;;;;;;;6.05;3.20;;;;;;;;;;10347062;28;20470;-87
2021/09/08 05:45:21;;;;;;;4.00;3.00;;;;;;;;;;10335058;28;20390;-84
2021/09/08 05:50:21;;;;;;;6.13;3.25;;;;;;;;;;10337433;28;20468;-84
2021/09/08 05:55:21;;;;;;;5.07;3.10;;;;;;;;;;10354902;28;20134;-93
2021/09/08 06:00:22;;;;;;;5.23;3.30;;;;;;;;;;10350730;28;20359;-88
2021/09/08 06:05:22;;;;;;;4.20;3.10;;;;;;;;;;10356574;28;20494;-88
2021/09/08 06:10:23;;;;;;;5.60;3.07;;;;;;;;;;10367368;28;20022;-88
2021/09/08 06:15:23;;;;;;;5.70;3.47;;;;;;;;;;10358900;28;20444;-82
2021/09/08 06:20:23;;;;;;;3.73;3.10;;;;;;;;;;10370019;28;20029;-83
2021/09/08 06:25:24;;;;;;;4.80;2.93;;;;;;;;;;10369606;28;20050;-83
2021/09/08 06:30:25;;;;;;;4.97;3.28;;;;;;;;;;10367750;28;20467;-85
2021/09/08 06:35:25;;;;;;;5.65;3.50;;;;;;;;;;10369483;28;20422;-85
2021/09/08 06:40:26;;;;;;;3.97;3.13;;;;;;;;;;10368923;28;20385;-84
2021/09/08 06:45:26;;;;;;;5.47;2.88;;;;;;;;;;10334042;28;20486;-87
2021/09/08 06:50:26;;;;;;;4.83;2.57;;;;;;;;;;10332269;28;20033;-86
2021/09/08 06:55:27;;;;;;;4.18;2.95;;;;;;;;;;10341357;28;20028;-86
2021/09/08 07:00:27;;;;;;;3.80;2.90;;;;;;;;;;10340843;28;20457;-84
2021/09/08 07:05:28;;;;;;;8.90;3.10;;;;;;;;;;10340179;28;20444;-83
2021/09/08 07:10:28;;;;;;;9.50;3.13;;;;;;;;;;10340568;28;20058;-84
2021/09/08 07:15:28;;;;;;;8.00;2.93;;;;;;;;;;10340354;28;20114;-83
2021/09/08 07:20:29;;;;;;;7.03;2.67;;;;;;;;;;10340080;28;20487;-84
2021/09/08 07:25:29;;;;;;;4.53;3.10;;;;;;;;;;10339629;28;20121;-84
2021/09/08 07:30:30;;;;;;;7.20;3.23;;;;;;;;;;10339975;28;20023;-86
2021/09/08 07:35:30;;;;;;;9.38;3.45;;;;;;;;;;10338759;28;20456;-83
2021/09/08 07:40:32;;;;;;;8.43;3.55;;;;;;;;;;10341051;23;20030;-83
2021/09/08 07:45:32;;;;;;;7.10;3.30;;;;;;;;;;10371194;28;20030;-83
2021/09/08 07:50:33;;;;;;;8.80;3.37;;;;;;;;;;10379593;28;20466;-83
2021/09/08 07:55:33;;;;;;;8.97;3.30;;;;;;;;;;10372395;28;20034;-83
2021/09/08 08:00:35;;;;;;;5.60;3.13;;;;;;;;;;10379096;28;20109;-83
2021/09/08 08:05:36;;;;;;;15.15;3.22;;;;;;;;;;10377807;28;20041;-83
2021/09/08 08:10:36;;;;;;;6.87;3.53;;;;;;;;;;10378200;28;20088;-84
2021/09/08 08:15:37;;;;;;;9.10;3.45;;;;;;;;;;10378697;28;20058;-84
2021/09/08 08:20:37;;;;;;;9.05;4.90;;;;;;;;;;10377932;28;20105;-85
2021/09/08 08:25:38;;;;;;;18.70;4.47;;;;;;;;;;10378664;28;20117;-82
2021/09/08 08:30:38;;;;;;;8.73;3.70;;;;;;;;;;10376504;28;20462;-81
2021/09/08 08:35:39;;;;;;;12.27;4.35;;;;;;;;;;10377509;28;20025;-82
2021/09/08 08:40:39;;;;;;;8.80;3.47;;;;;;;;;;10390918;28;20042;-83
2021/09/08 08:45:40;;;;;;;8.50;4.40;;;;;;;;;;10376553;28;20760;-84
2021/09/08 08:50:40;;;;;;;27.67;4.35;;;;;;;;;;10359497;28;20113;-86
2021/09/08 08:55:40;;;;;;;15.07;4.33;;;;;;;;;;10376715;28;20109;-84
2021/09/08 09:00:42;;;;;;;16.00;4.77;;;;;;;;;;10376093;28;20463;-85
2021/09/08 09:05:42;;;;;;;10.43;4.40;;;;;;;;;;10377014;28;20496;-85
2021/09/08 09:10:43;;;;;;;10.57;4.93;;;;;;;;;;10376631;28;20033;-84
2021/09/08 09:15:44;;;;;;;10.75;4.38;;;;;;;;;;10376084;28;20022;-85
2021/09/08 09:20:52;;;;;;;14.77;4.73;;;;;;;;;;10376074;28;20108;-85
2021/09/08 09:25:57;;;;;;;9.60;4.35;;;;;;;;;;10376001;28;20026;-85
2021/09/08 09:30:57;;;;;;;6.28;4.00;;;;;;;;;;10375489;28;20034;-84
2021/09/08 09:36:14;;;;;;;7.40;4.23;;;;;;;;;;10358348;28;20473;-85
2021/09/08 09:41:17;;;;;;;8.27;3.95;;;;;;;;;;10389098;28;20125;-85
2021/09/08 09:46:18;;;;;;;9.10;3.85;;;;;;;;;;10357430;28;20113;-85
2021/09/08 09:51:19;;;;;;;9.07;4.05;;;;;;;;;;10374401;28;20034;-84
2021/09/08 09:56:19;;;;;;;9.80;3.67;;;;;;;;;;10375097;28;20034;-84
2021/09/08 10:01:20;;;;;;;7.50;4.05;;;;;;;;;;10374576;28;20057;-84
2021/09/08 10:06:20;;;;;;;7.70;3.72;;;;;;;;;;10374018;28;20117;-85
2021/09/08 10:11:32;;;;;;;6.35;3.70;;;;;;;;;;10374696;28;20132;-85
2021/09/08 10:16:34;;;;;;;9.75;4.53;;;;;;;;;;10358041;28;20040;-85
2021/09/08 10:21:36;;;;;;;7.80;4.13;;;;;;;;;;10374440;28;20034;-85
2021/09/08 10:26:36;;;;;;;6.53;3.42;;;;;;;;;;10373030;28;20108;-85
2021/09/08 10:31:40;;;;;;;7.97;3.47;;;;;;;;;;10374000;28;20124;-89
2021/09/08 10:36:43;;;;;;;7.10;4.10;;;;;;;;;;10356640;28;20030;-86
2021/09/08 10:41:52;;;;;;;12.77;4.93;;;;;;;;;;10371273;28;20050;-85
2021/09/08 10:47:02;;;;;;;12.55;4.00;;;;;;;;;;10360199;28;20053;-85
2021/09/08 10:52:35;;;;;;;6.45;3.80;;;;;;;;;;10375855;28;20037;-84
2021/09/08 10:57:41;;;;;;;7.45;4.10;;;;;;;;;;10376443;28;20038;-83
2021/09/08 11:02:42;;;;;;;9.63;4.03;;;;;;;;;;10387281;28;20112;-85
2021/09/08 11:07:45;;;;;;;10.85;3.85;;;;;;;;;;10377930;28;20081;-86
2021/09/08 11:12:46;;;;;;;5.38;4.05;;;;;;;;;;10359311;28;20041;-85
2021/09/08 11:17:53;;;;;;;6.80;3.90;;;;;;;;;;10377873;28;20445;-84
2021/09/08 11:23:09;;;;;;;7.43;3.53;;;;;;;;;;10377180;28;20061;-86
2021/09/08 11:28:10;;;;;;;9.77;3.47;;;;;;;;;;10377350;28;20030;-84
2021/09/08 11:33:13;;;;;;;6.65;3.95;;;;;;;;;;10374611;28;20070;-89
2021/09/08 11:38:25;;;;;;;8.23;4.03;;;;;;;;;;10343288;28;20116;-87
2021/09/08 11:43:52;;;;;;;10.10;3.33;;;;;;;;;;10377705;28;20460;-87
2021/09/08 11:49:04;;;;;;;4.50;3.58;;;;;;;;;;10366987;28;20045;-87
2021/09/08 11:54:07;;;;;;;6.88;3.50;;;;;;;;;;10352311;28;20042;-87
2021/09/08 11:59:08;;;;;;;13.73;4.15;;;;;;;;;;10379468;28;20038;-86
2021/09/08 12:04:09;;;;;;;9.57;3.83;;;;;;;;;;10379285;28;20042;-87
2021/09/08 12:09:11;;;;;;;7.70;4.28;;;;;;;;;;10361761;28;20030;-86
2021/09/08 12:14:24;;;;;;;7.95;4.05;;;;;;;;;;10372288;28;20022;-87
2021/09/08 12:19:36;;;;;;;5.15;3.80;;;;;;;;;;10383961;28;20061;-86
2021/09/08 12:24:55;;;;;;;6.35;3.38;;;;;;;;;;10386504;28;20564;-86
2021/09/08 12:30:04;;;;;;;13.02;4.43;;;;;;;;;;10397233;28;20040;-96
2021/09/08 12:35:07;;;;;;;11.10;4.00;;;;;;;;;;10346953;28;20089;-94
2021/09/08 12:40:14;;;;;;;12.63;3.47;;;;;;;;;;10328944;28;20056;-91
2021/09/08 12:45:15;;;;;;;5.22;3.72;;;;;;;;;;10347679;28;20042;-90
2021/09/08 12:50:15;;;;;;;8.48;4.35;;;;;;;;;;10349587;28;20030;-90
2021/09/08 12:55:16;;;;;;;7.73;3.80;;;;;;;;;;10379069;28;20465;-83
2021/09/08 13:00:16;;;;;;;8.52;3.58;;;;;;;;;;10403444;28;20530;-87
2021/09/08 13:05:17;;;;;;;6.05;3.58;;;;;;;;;;10398571;28;20040;-87
2021/09/08 13:10:18;;;;;;;6.07;3.00;;;;;;;;;;10384816;28;20029;-82
2021/09/08 13:15:19;;;;;;;6.47;3.30;;;;;;;;;;10401600;28;20028;-84
2021/09/08 13:20:19;;;;;;;5.63;3.40;;;;;;;;;;10386709;28;20034;-82
2021/09/08 13:25:20;;;;;;;12.70;3.63;;;;;;;;;;10377189;28;20037;-81
2021/09/08 13:30:20;;;;;;;5.93;3.63;;;;;;;;;;10388999;28;20029;-81
2021/09/08 13:35:21;;;;;;;6.65;3.60;;;;;;;;;;10389700;28;20033;-82
2021/09/08 13:40:21;;;;;;;10.57;4.18;;;;;;;;;;10397451;28;20476;-81
2021/09/08 13:45:23;;;;;;;7.18;3.83;;;;;;;;;;10373717;28;20050;-82
2021/09/08 13:50:23;;;;;;;8.63;3.90;;;;;;;;;;10374741;28;20192;-83
2021/09/08 13:55:24;;;;;;;8.00;3.63;;;;;;;;;;10375818;28;20121;-82
2021/09/08 14:00:24;;;;;;;9.60;3.63;;;;;;;;;;10375026;28;20113;-80
2021/09/08 14:05:25;;;;;;;8.52;4.40;;;;;;;;;;10374806;28;20030;-82
2021/09/08 14:10:27;;;;;;;12.55;4.10;;;;;;;;;;10374968;28;20433;-81
2021/09/08 14:15:28;;;;;;;9.43;3.47;;;;;;;;;;10374066;28;20025;-81
2021/09/08 14:20:28;;;;;;;6.60;3.30;;;;;;;;;;10375017;28;20480;-81
2021/09/08 14:25:29;;;;;;;7.13;3.30;;;;;;;;;;10375245;28;20446;-81
2021/09/08 14:30:30;;;;;;;7.00;3.13;;;;;;;;;;10375029;28;20444;-82
2021/09/08 14:35:31;;;;;;;5.65;3.40;;;;;;;;;;10374015;28;20033;-81
2021/09/08 14:40:32;;;;;;;8.93;3.55;;;;;;;;;;10388063;28;20481;-80
2021/09/08 14:45:33;;;;;;;5.65;3.10;;;;;;;;;;10374704;28;20034;-81
2021/09/08 14:50:33;;;;;;;7.60;3.42;;;;;;;;;;10374018;28;20041;-82
2021/09/08 14:55:34;;;;;;;5.13;3.60;;;;;;;;;;10371020;28;20474;-83
2021/09/08 15:00:34;;;;;;;7.93;3.60;;;;;;;;;;10372615;28;20040;-82
2021/09/08 15:05:35;;;;;;;6.67;3.40;;;;;;;;;;10373421;28;20033;-84
2021/09/08 15:10:36;;;;;;;5.20;3.17;;;;;;;;;;10372258;28;20040;-80
2021/09/08 15:15:36;;;;;;;8.47;3.40;;;;;;;;;;10378506;28;20030;-80
2021/09/08 15:20:36;;;;;;;6.13;3.97;;;;;;;;;;10373178;28;20105;-79
2021/09/08 15:25:37;;;;;;;6.07;3.80;;;;;;;;;;10384428;28;20531;-81
2021/09/08 15:30:37;;;;;;;13.15;3.72;;;;;;;;;;10367866;28;20452;-80
2021/09/08 15:35:38;;;;;;;7.03;3.25;;;;;;;;;;10395375;28;20381;-83
2021/09/08 15:40:39;;;;;;;8.98;3.67;;;;;;;;;;10397472;28;20103;-81
2021/09/08 15:45:39;;;;;;;5.05;3.28;;;;;;;;;;10380600;28;20052;-81
2021/09/08 15:50:40;;;;;;;6.57;3.20;;;;;;;;;;10383580;28;20471;-82
2021/09/08 15:55:42;;;;;;;4.18;3.05;;;;;;;;;;10405688;28;20330;-82
2021/09/08 16:00:43;;;;;;;7.55;3.80;;;;;;;;;;10405448;28;20127;-82
2021/09/08 16:05:43;;;;;;;7.63;3.30;;;;;;;;;;10406870;28;20037;-83
2021/09/08 16:10:44;;;;;;;6.53;3.35;;;;;;;;;;10410373;28;20033;-81
2021/09/08 16:15:44;;;;;;;6.28;3.00;;;;;;;;;;10382271;28;20488;-81
2021/09/08 16:20:45;;;;;;;7.03;3.53;;;;;;;;;;10409930;28;20580;-81
2021/09/08 16:25:45;;;;;;;3.87;3.10;;;;;;;;;;10387726;28;20040;-81
2021/09/08 16:30:45;;;;;;;4.53;3.17;;;;;;;;;;10409931;28;20033;-81
2021/09/08 16:35:46;;;;;;;7.73;3.27;;;;;;;;;;10407945;28;20131;-82
2021/09/08 16:40:47;;;;;;;3.88;3.33;;;;;;;;;;10404433;28;20785;-81
2021/09/08 16:45:47;;;;;;;4.33;3.03;;;;;;;;;;10378223;28;20421;-82
2021/09/08 16:50:48;;;;;;;3.42;2.72;;;;;;;;;;10378637;28;20428;-81
2021/09/08 16:55:48;;;;;;;6.05;3.38;;;;;;;;;;10377905;28;20030;-82
2021/09/08 17:00:49;;;;;;;5.90;2.80;;;;;;;;;;10376762;28;20030;-82
2021/09/08 17:05:51;;;;;;;3.03;2.72;;;;;;;;;;10377205;28;20045;-81
2021/09/08 17:10:51;;;;;;;4.63;2.88;;;;;;;;;;10376370;28;20085;-82
2021/09/08 17:15:51;;;;;;;4.97;2.97;;;;;;;;;;10376602;28;20030;-83
2021/09/08 17:20:52;;;;;;;3.50;2.80;;;;;;;;;;10375399;28;20565;-76
2021/09/08 17:25:52;;;;;;;7.82;3.80;;;;;;;;;;10376389;28;20494;-77
2021/09/08 17:30:54;;;;;;;6.05;3.88;;;;;;;;;;10375140;28;20462;-77
2021/09/08 17:35:55;;;;;;;5.38;3.13;;;;;;;;;;10375321;28;20469;-76
2021/09/08 17:46:08;;;;;;;9.15;3.70;;;;;;;;;;10373547;28;20397;-78
2021/09/08 17:51:08;;;;;;;6.40;3.33;;;;;;;;;;10372331;28;20030;-79
2021/09/08 17:56:09;;;;;;;9.07;3.40;;;;;;;;;;10382142;28;20810;-79
2021/09/08 18:01:09;;;;;;;8.83;3.80;;;;;;;;;;10387436;28;20036;-79
2021/09/08 18:06:09;;;;;;;11.35;3.58;;;;;;;;;;10389297;28;20954;-78
2021/09/08 18:11:10;;;;;;;9.63;4.30;;;;;;;;;;10389532;28;20022;-78
2021/09/08 18:16:10;;;;;;;9.43;3.93;;;;;;;;;;10372220;28;20116;-78
2021/09/08 18:21:11;;;;;;;11.60;5.03;;;;;;;;;;10385460;28;20253;-78
2021/09/08 18:26:11;;;;;;;10.23;4.80;;;;;;;;;;10375892;28;20038;-78
2021/09/08 18:31:12;;;;;;;11.68;5.40;;;;;;;;;;10381829;28;20023;-78
2021/09/08 18:36:13;;;;;;;11.82;5.50;;;;;;;;;;10378236;28;20030;-78
2021/09/08 18:41:13;;;;;;;15.60;5.50;;;;;;;;;;10396206;28;20057;-78
2021/09/08 18:46:14;;;;;;;13.90;5.63;;;;;;;;;;10373596;28;20436;-78
2021/09/08 18:51:15;;;;;;;12.70;5.60;;;;;;;;;;10380630;28;20029;-78
2021/09/08 18:56:16;;;;;;;10.33;5.13;;;;;;;;;;10377884;28;20031;-78
2021/09/08 19:01:16;;;;;;;12.45;5.35;;;;;;;;;;10383322;28;20033;-78
2021/09/08 19:06:17;;;;;;;14.88;5.47;;;;;;;;;;10382127;28;20052;-78
2021/09/08 19:11:17;;;;;;;11.57;5.88;;;;;;;;;;10371003;28;20484;-78
2021/09/08 19:16:18;;;;;;;23.50;6.25;;;;;;;;;;10378537;28;20462;-78
2021/09/08 19:21:18;;;;;;;14.45;6.15;;;;;;;;;;10364605;28;20113;-78
2021/09/08 19:26:19;;;;;;;16.23;5.55;;;;;;;;;;10381544;28;20073;-83
2021/09/08 19:31:19;;;;;;;11.73;5.05;;;;;;;;;;10406034;28;20072;-83
2021/09/08 19:36:20;;;;;;;7.00;5.03;;;;;;;;;;10393404;28;20034;-83
2021/09/08 19:41:20;;;;;;;12.63;5.17;;;;;;;;;;10444528;23;20061;-81
2021/09/08 19:46:21;;;;;;;9.90;4.82;;;;;;;;;;10418628;28;20475;-80
2021/09/08 19:51:21;;;;;;;16.47;7.07;;;;;;;;;;10421500;28;20129;-77
2021/09/08 19:56:21;;;;;;;13.90;7.00;;;;;;;;;;10422354;28;21000;-77
2021/09/08 20:01:22;;;;;;;22.33;7.40;;;;;;;;;;10421572;28;20480;-78
2021/09/08 20:06:22;;;;;;;15.63;7.00;;;;;;;;;;10420956;28;20087;-76
2021/09/08 20:11:22;;;;;;;19.97;7.20;;;;;;;;;;10421109;28;20459;-78
2021/09/08 20:16:23;;;;;;;17.83;6.50;;;;;;;;;;10435216;28;20021;-77
2021/09/08 20:21:23;;;;;;;11.53;6.47;;;;;;;;;;10420358;28;20514;-77
2021/09/08 20:26:24;;;;;;;14.93;6.63;;;;;;;;;;10418326;28;20351;-77
2021/09/08 20:31:24;;;;;;;13.47;6.80;;;;;;;;;;10409212;28;20561;-74
2021/09/08 20:36:24;;;;;;;12.00;6.07;;;;;;;;;;10419589;28;20056;-75
2021/09/08 20:41:25;;;;;;;11.77;6.30;;;;;;;;;;10432879;28;20056;-76
2021/09/08 20:46:26;;;;;;;15.87;6.47;;;;;;;;;;10417101;28;20068;-77
2021/09/08 20:51:27;;;;;;;12.70;6.95;;;;;;;;;;10393838;28;20026;-77
2021/09/08 20:56:27;;;;;;;21.15;7.10;;;;;;;;;;10418677;28;20036;-76
2021/09/08 21:01:28;;;;;;;11.10;6.80;;;;;;;;;;10418054;28;20033;-77
2021/09/08 21:06:28;;;;;;;13.70;7.30;;;;;;;;;;10405807;28;20961;-78
2021/09/08 21:11:32;;;;;;;9.85;6.28;;;;;;;;;;10417512;28;20026;-78
2021/09/08 21:16:32;;;;;;;13.60;7.22;;;;;;;;;;10417655;28;20108;-77
2021/09/08 21:21:33;;;;;;;12.80;6.38;;;;;;;;;;10416724;28;20113;-76
2021/09/08 21:26:33;;;;;;;17.13;6.43;;;;;;;;;;10411941;28;20087;-77
2021/09/08 21:31:34;;;;;;;11.23;6.00;;;;;;;;;;10418366;28;20115;-77
2021/09/08 21:36:34;;;;;;;15.23;6.80;;;;;;;;;;10420332;28;20079;-76
2021/09/08 21:41:34;;;;;;;10.37;5.97;;;;;;;;;;10431797;28;20049;-76
2021/09/08 21:46:35;;;;;;;10.27;6.00;;;;;;;;;;10407488;28;20473;-77
2021/09/08 21:51:35;;;;;;;17.03;6.23;;;;;;;;;;10412482;28;20547;-76
2021/09/08 21:56:36;;;;;;;11.03;5.53;;;;;;;;;;10416129;28;20435;-79
2021/09/08 22:01:36;;;;;;;14.10;5.90;;;;;;;;;;10416101;28;20025;-77
2021/09/08 22:06:36;;;;;;;13.20;5.53;;;;;;;;;;10416801;28;20439;-80
2021/09/08 22:11:37;;;;;;;13.20;5.73;;;;;;;;;;10417621;28;20030;-80
2021/09/08 22:16:37;;;;;;;11.27;5.70;;;;;;;;;;10414665;28;20021;-81
2021/09/08 22:21:38;;;;;;;14.57;5.63;;;;;;;;;;10423866;28;20030;-80
2021/09/08 22:26:38;;;;;;;13.52;6.25;;;;;;;;;;10423882;28;20867;-85
2021/09/08 22:31:39;;;;;;;7.80;5.20;;;;;;;;;;10417610;28;20071;-83
2021/09/08 22:36:39;;;;;;;8.02;5.22;;;;;;;;;;10428773;28;20492;-88
2021/09/08 22:41:40;;;;;;;14.63;5.57;;;;;;;;;;10418032;28;20049;-85
2021/09/08 22:46:40;;;;;;;22.38;5.63;;;;;;;;;;10418027;28;20522;-86
2021/09/08 22:51:40;;;;;;;12.43;5.53;;;;;;;;;;10432754;28;20036;-84
2021/09/08 22:56:41;;;;;;;7.03;4.90;;;;;;;;;;10417224;28;20049;-85
2021/09/08 23:01:41;;;;;;;15.80;5.40;;;;;;;;;;10402347;28;20487;-87
2021/09/08 23:06:41;;;;;;;8.77;4.83;;;;;;;;;;10415872;28;20435;-85
2021/09/08 23:11:42;;;;;;;21.27;4.57;;;;;;;;;;10413343;28;20802;-84
2021/09/08 23:16:42;;;;;;;12.83;5.07;;;;;;;;;;10417219;28;20506;-84
2021/09/08 23:21:43;;;;;;;11.77;4.87;;;;;;;;;;10417287;28;20471;-85
2021/09/08 23:26:43;;;;;;;7.13;4.73;;;;;;;;;;10416973;28;20040;-83
2021/09/08 23:31:43;;;;;;;15.27;5.00;;;;;;;;;;10430947;28;20053;-83
2021/09/08 23:36:44;;;;;;;8.80;4.77;;;;;;;;;;10404906;28;20523;-86
2021/09/08 23:41:44;;;;;;;7.13;4.90;;;;;;;;;;10438268;28;20057;-82
2021/09/08 23:46:44;;;;;;;9.27;4.90;;;;;;;;;;10424132;28;20084;-84
2021/09/08 23:51:45;;;;;;;10.10;4.50;;;;;;;;;;10423994;28;20454;-84
2021/09/08 23:56:46;;;;;;;10.73;4.07;;;;;;;;;;10423564;28;20053;-84
